Byromville, Georgia
Current Conditions -  °F | °C
As of 1:35 AM on Monday 24 Nov 2014 (Local Time) from KACJ Reporting Station
Overcast Overcast  
Wind Chill: 64°   Ceiling: 900
Heat Index: 64°   Visibility: 10mi
Dew Point: 63°   Wind: 6mph
Humidity: 94%   Direction: 210°SSW
Pressure: 29.82"   Gusts: NA
Location:  32.2°N, 83.91°W
Report Text: KACJ 240635Z AUTO 21005KT 10SM OVC009 18/17 A2982 RMK AO2
Loading
Personal Weather Stations






























Interactive Weather Map New forecast layout! Learn more

10-Day Weather Forecast

Advertisements
Track Severe Weather on mobile